Samos, Greece
Current Conditions -  °F | °C
As of 5:50 PM on Monday 22 Dec 2014 (Local Time) from LGSM Reporting Station
Few Clouds Few Clouds  
Wind Chill: 52°   Ceiling: Unl
Heat Index: 52°   Visibility: 6mi
Dew Point: 36°   Wind: 12mph
Humidity: 54%   Direction: 350°N
Pressure: 30.27"   Gusts: NA
Location:  37.76°N, 26.98°E
Report Text: LGSM 221450Z 35010KT 330V030 9999 FEW030 11/02 Q1025
Loading
Personal Weather Stations






























Interactive Weather Map New forecast layout! Learn more

10-Day Weather Forecast

Advertisements
Track Severe Weather on mobile